createdAt,value
2017-09-15T00:00:06.610Z,1004.25
2017-09-15T00:00:32.728Z,1004.28
2017-09-15T00:00:58.850Z,1004.3
2017-09-15T00:01:24.975Z,1004.22
2017-09-15T00:01:51.092Z,1004.28
2017-09-15T00:02:17.216Z,1004.27
2017-09-15T00:02:43.365Z,1004.24
2017-09-15T00:03:09.482Z,1004.24
2017-09-15T00:03:35.607Z,1004.28
2017-09-15T00:04:01.731Z,1004.27
2017-09-15T00:04:27.849Z,1004.28
2017-09-15T00:04:53.968Z,1004.24
2017-09-15T00:05:20.092Z,1004.27
2017-09-15T00:05:46.211Z,1004.29
2017-09-15T00:06:12.339Z,1004.29
2017-09-15T00:06:38.467Z,1004.26
2017-09-15T00:07:04.591Z,1004.27
2017-09-15T00:07:30.716Z,1004.3
2017-09-15T00:07:56.833Z,1004.27
2017-09-15T00:08:22.951Z,1004.29
2017-09-15T00:08:49.071Z,1004.3
2017-09-15T00:09:15.199Z,1004.3
2017-09-15T00:09:41.318Z,1004.29
2017-09-15T00:10:07.496Z,1004.28
2017-09-15T00:10:33.620Z,1004.3
2017-09-15T00:10:59.738Z,1004.31
2017-09-15T00:11:25.862Z,1004.29
2017-09-15T00:11:51.983Z,1004.34
2017-09-15T00:12:18.111Z,1004.34
2017-09-15T00:12:44.228Z,1004.38
2017-09-15T00:13:10.356Z,1004.3
2017-09-15T00:13:36.473Z,1004.32
2017-09-15T00:14:02.594Z,1004.38
2017-09-15T00:14:28.723Z,1004.39
2017-09-15T00:14:54.864Z,1004.36
2017-09-15T00:15:20.985Z,1004.33
2017-09-15T00:15:47.112Z,1004.33
2017-09-15T00:16:13.240Z,1004.36
2017-09-15T00:16:39.359Z,1004.39
2017-09-15T00:17:05.479Z,1004.35
2017-09-15T00:17:31.622Z,1004.39
2017-09-15T00:17:57.740Z,1004.34
2017-09-15T00:18:23.866Z,1004.36
2017-09-15T00:18:49.987Z,1004.33
2017-09-15T00:19:16.105Z,1004.39
2017-09-15T00:19:42.234Z,1004.35
2017-09-15T00:20:08.368Z,1004.35
2017-09-15T00:20:34.486Z,1004.42
2017-09-15T00:21:00.610Z,1004.4
2017-09-15T00:21:26.729Z,1004.37
2017-09-15T00:21:52.852Z,1004.4
2017-09-15T00:22:18.971Z,1004.36
2017-09-15T00:22:45.094Z,1004.42
2017-09-15T00:23:11.224Z,1004.38
2017-09-15T00:23:37.338Z,1004.38
2017-09-15T00:24:03.463Z,1004.42
2017-09-15T00:24:29.578Z,1004.4
2017-09-15T00:24:55.723Z,1004.41
2017-09-15T00:25:21.850Z,1004.36
2017-09-15T00:25:47.965Z,1004.39
2017-09-15T00:26:14.099Z,1004.41
2017-09-15T00:26:40.217Z,1004.39
2017-09-15T00:27:06.343Z,1004.38
2017-09-15T00:27:32.461Z,1004.44
2017-09-15T00:27:58.582Z,1004.45
2017-09-15T00:28:24.709Z,1004.38
2017-09-15T00:28:50.822Z,1004.41
2017-09-15T00:29:16.947Z,1004.42
2017-09-15T00:29:43.070Z,1004.42
2017-09-15T00:30:09.197Z,1004.42
2017-09-15T00:30:35.323Z,1004.38
2017-09-15T00:31:01.441Z,1004.43
2017-09-15T00:31:27.570Z,1004.44
2017-09-15T00:31:53.686Z,1004.43
2017-09-15T00:32:19.812Z,1004.44
2017-09-15T00:32:45.933Z,1004.41
2017-09-15T00:33:12.051Z,1004.42
2017-09-15T00:33:38.179Z,1004.44
2017-09-15T00:34:04.296Z,1004.45
2017-09-15T00:34:30.419Z,1004.38
2017-09-15T00:34:56.545Z,1004.46
2017-09-15T00:35:22.663Z,1004.41
2017-09-15T00:35:48.783Z,1004.44
2017-09-15T00:36:14.910Z,1004.46
2017-09-15T00:36:41.035Z,1004.41
2017-09-15T00:37:07.152Z,1004.45
2017-09-15T00:37:33.271Z,1004.45
2017-09-15T00:37:59.400Z,1004.46
2017-09-15T00:38:25.518Z,1004.39
2017-09-15T00:38:51.642Z,1004.43
2017-09-15T00:39:17.769Z,1004.4
2017-09-15T00:39:43.886Z,1004.36
2017-09-15T00:40:10.005Z,1004.41
2017-09-15T00:40:36.155Z,1004.42
2017-09-15T00:41:02.255Z,1004.42
2017-09-15T00:41:28.374Z,1004.42
2017-09-15T00:41:54.501Z,1004.43
2017-09-15T00:42:20.618Z,1004.38
2017-09-15T00:42:46.738Z,1004.42
2017-09-15T00:43:12.861Z,1004.45
2017-09-15T00:43:38.977Z,1004.45
2017-09-15T00:44:05.100Z,1004.48
2017-09-15T00:44:31.231Z,1004.49
2017-09-15T00:44:57.354Z,1004.42
2017-09-15T00:45:23.479Z,1004.44
2017-09-15T00:45:49.605Z,1004.53
2017-09-15T00:46:15.725Z,1004.52
2017-09-15T00:46:43.291Z,1004.47
2017-09-15T00:47:09.410Z,1004.46
2017-09-15T00:47:35.555Z,1004.51
2017-09-15T00:48:01.663Z,1004.49
2017-09-15T00:48:27.786Z,1004.5
2017-09-15T00:48:53.904Z,1004.5
2017-09-15T00:49:20.027Z,1004.49
2017-09-15T00:49:46.148Z,1004.49
2017-09-15T00:50:12.269Z,1004.5
2017-09-15T00:50:38.394Z,1004.46
2017-09-15T00:51:04.518Z,1004.44
2017-09-15T00:51:30.645Z,1004.5
2017-09-15T00:51:56.761Z,1004.51
2017-09-15T00:52:22.879Z,1004.53
2017-09-15T00:52:49.007Z,1004.49
2017-09-15T00:53:15.133Z,1004.51
2017-09-15T00:53:41.251Z,1004.53
2017-09-15T00:54:07.377Z,1004.51
2017-09-15T00:54:33.494Z,1004.57
2017-09-15T00:54:59.643Z,1004.49
2017-09-15T00:55:25.743Z,1004.5
2017-09-15T00:55:51.867Z,1004.44
2017-09-15T00:56:17.986Z,1004.51
2017-09-15T00:56:44.108Z,1004.52
2017-09-15T00:57:10.232Z,1004.5
2017-09-15T00:57:36.351Z,1004.55
2017-09-15T00:58:02.478Z,1004.53
2017-09-15T00:58:28.597Z,1004.51
2017-09-15T00:58:54.723Z,1004.55
2017-09-15T00:59:20.840Z,1004.64
2017-09-15T00:59:46.963Z,1004.58
2017-09-15T01:00:13.091Z,1004.57
2017-09-15T01:00:39.209Z,1004.53
2017-09-15T01:01:05.336Z,1004.6
2017-09-15T01:01:31.451Z,1004.57
2017-09-15T01:01:57.578Z,1004.53
2017-09-15T01:02:23.700Z,1004.52
2017-09-15T01:02:49.825Z,1004.58
2017-09-15T01:03:15.941Z,1004.56
2017-09-15T01:03:42.068Z,1004.56
2017-09-15T01:04:08.189Z,1004.54
2017-09-15T01:04:34.306Z,1004.58
2017-09-15T01:05:00.440Z,1004.57
2017-09-15T01:05:26.564Z,1004.58
2017-09-15T01:05:52.684Z,1004.62
2017-09-15T01:06:18.811Z,1004.6
2017-09-15T01:06:44.933Z,1004.62
2017-09-15T01:07:11.057Z,1004.62
2017-09-15T01:07:37.177Z,1004.6
2017-09-15T01:08:03.294Z,1004.61
2017-09-15T01:08:29.422Z,1004.69
2017-09-15T01:08:55.535Z,1004.66
2017-09-15T01:09:21.655Z,1004.61
2017-09-15T01:09:47.777Z,1004.58
2017-09-15T01:10:13.903Z,1004.61
2017-09-15T01:10:40.015Z,1004.67
2017-09-15T01:11:06.138Z,1004.71
2017-09-15T01:11:32.264Z,1004.67
2017-09-15T01:11:58.392Z,1004.72
2017-09-15T01:12:24.515Z,1004.66
2017-09-15T01:12:50.633Z,1004.71
2017-09-15T01:13:16.759Z,1004.76
2017-09-15T01:13:42.882Z,1004.72
2017-09-15T01:14:09.004Z,1004.7
2017-09-15T01:14:35.151Z,1004.67
2017-09-15T01:15:01.264Z,1004.73
2017-09-15T01:15:27.391Z,1004.72
2017-09-15T01:15:53.512Z,1004.7
2017-09-15T01:16:19.652Z,1004.7
2017-09-15T01:16:45.772Z,1004.71
2017-09-15T01:17:11.899Z,1004.73
2017-09-15T01:17:38.041Z,1004.69
2017-09-15T01:18:04.165Z,1004.74
2017-09-15T01:18:30.289Z,1004.68
2017-09-15T01:18:56.412Z,1004.69
2017-09-15T01:19:22.534Z,1004.68
2017-09-15T01:19:48.674Z,1004.68
2017-09-15T01:20:14.773Z,1004.71
2017-09-15T01:20:40.894Z,1004.7
2017-09-15T01:21:07.013Z,1004.74
2017-09-15T01:21:33.134Z,1004.74
2017-09-15T01:21:59.250Z,1004.74
2017-09-15T01:22:25.376Z,1004.77
2017-09-15T01:22:51.497Z,1004.73
2017-09-15T01:23:17.628Z,1004.78
2017-09-15T01:23:43.752Z,1004.74
2017-09-15T01:24:09.877Z,1004.76
2017-09-15T01:24:35.987Z,1004.78
2017-09-15T01:25:02.114Z,1004.76
2017-09-15T01:25:28.232Z,1004.77
2017-09-15T01:25:54.357Z,1004.76
2017-09-15T01:26:20.483Z,1004.8
2017-09-15T01:26:46.601Z,1004.78
2017-09-15T01:27:12.729Z,1004.77
2017-09-15T01:27:38.846Z,1004.79
2017-09-15T01:28:04.973Z,1004.76
2017-09-15T01:28:31.095Z,1004.78
2017-09-15T01:28:57.212Z,1004.79
2017-09-15T01:29:23.339Z,1004.76
2017-09-15T01:29:49.457Z,1004.83
2017-09-15T01:30:15.583Z,1004.77
2017-09-15T01:30:41.707Z,1004.82
2017-09-15T01:31:07.831Z,1004.77
2017-09-15T01:31:33.956Z,1004.79
2017-09-15T01:32:00.072Z,1004.77
2017-09-15T01:32:26.199Z,1004.8
2017-09-15T01:32:52.318Z,1004.81
2017-09-15T01:33:18.438Z,1004.78
2017-09-15T01:33:44.568Z,1004.79
2017-09-15T01:34:10.685Z,1004.84
2017-09-15T01:34:36.812Z,1004.82
2017-09-15T01:35:02.936Z,1004.77
2017-09-15T01:35:29.057Z,1004.81
2017-09-15T01:35:55.176Z,1004.83
2017-09-15T01:36:21.306Z,1004.82
2017-09-15T01:36:47.431Z,1004.85
2017-09-15T01:37:13.548Z,1004.83
2017-09-15T01:37:39.674Z,1004.81
2017-09-15T01:38:05.797Z,1004.81
2017-09-15T01:38:31.914Z,1004.82
2017-09-15T01:38:58.039Z,1004.82
2017-09-15T01:39:24.154Z,1004.81
2017-09-15T01:39:50.275Z,1004.82
2017-09-15T01:40:16.405Z,1004.86
2017-09-15T01:40:42.522Z,1004.83
2017-09-15T01:41:08.644Z,1004.86
2017-09-15T01:41:34.765Z,1004.81
2017-09-15T01:42:00.881Z,1004.85
2017-09-15T01:42:27.011Z,1004.85
2017-09-15T01:42:53.138Z,1004.84
2017-09-15T01:43:19.256Z,1004.82
2017-09-15T01:43:45.387Z,1004.84
2017-09-15T01:44:11.502Z,1004.83
2017-09-15T01:44:37.621Z,1004.84
2017-09-15T01:45:03.743Z,1004.79
2017-09-15T01:45:29.870Z,1004.83
2017-09-15T01:45:55.994Z,1004.81
2017-09-15T01:46:22.113Z,1004.83
2017-09-15T01:46:48.233Z,1004.8
2017-09-15T01:47:14.357Z,1004.79
2017-09-15T01:47:40.475Z,1004.8
2017-09-15T01:48:06.599Z,1004.84
2017-09-15T01:48:32.731Z,1004.87
2017-09-15T01:48:58.848Z,1004.81
2017-09-15T01:49:24.975Z,1004.81
2017-09-15T01:49:51.092Z,1004.77
2017-09-15T01:50:17.219Z,1004.8
2017-09-15T01:50:43.342Z,1004.78
2017-09-15T01:51:09.459Z,1004.83
2017-09-15T01:51:35.585Z,1004.76
2017-09-15T01:52:01.702Z,1004.8
2017-09-15T01:52:27.828Z,1004.82
2017-09-15T01:52:53.949Z,1004.8
2017-09-15T01:53:20.068Z,1004.8
2017-09-15T01:53:46.193Z,1004.89
2017-09-15T01:54:12.316Z,1004.81
2017-09-15T01:54:38.435Z,1004.79
2017-09-15T01:55:04.561Z,1004.78
2017-09-15T01:55:30.680Z,1004.78
2017-09-15T01:55:56.801Z,1004.84
2017-09-15T01:56:22.925Z,1004.81
2017-09-15T01:56:49.044Z,1004.84
2017-09-15T01:57:15.171Z,1004.82
2017-09-15T01:57:41.296Z,1004.83
2017-09-15T01:58:07.413Z,1004.79
2017-09-15T01:58:33.543Z,1004.83
2017-09-15T01:58:59.662Z,1004.84
2017-09-15T01:59:25.778Z,1004.83
2017-09-15T01:59:51.905Z,1004.85
2017-09-15T02:00:18.029Z,1004.81
2017-09-15T02:00:44.148Z,1004.85
2017-09-15T02:01:10.270Z,1004.82
2017-09-15T02:01:36.404Z,1004.79
2017-09-15T02:02:02.525Z,1004.79
2017-09-15T02:02:28.672Z,1004.86
2017-09-15T02:02:54.776Z,1004.84
2017-09-15T02:03:20.896Z,1004.83
2017-09-15T02:03:47.024Z,1004.87
2017-09-15T02:04:13.145Z,1004.87
2017-09-15T02:04:39.261Z,1004.8
2017-09-15T02:05:05.386Z,1004.79
2017-09-15T02:05:31.507Z,1004.84
2017-09-15T02:05:57.629Z,1004.81
2017-09-15T02:06:23.749Z,1004.82
2017-09-15T02:06:49.872Z,1004.81
2017-09-15T02:07:15.990Z,1004.81
2017-09-15T02:07:42.109Z,1004.87
2017-09-15T02:08:08.229Z,1004.83
2017-09-15T02:08:34.365Z,1004.89
2017-09-15T02:09:00.491Z,1004.82
2017-09-15T02:09:26.607Z,1004.84
2017-09-15T02:09:52.728Z,1004.84
2017-09-15T02:10:18.851Z,1004.89
2017-09-15T02:10:44.972Z,1004.83
2017-09-15T02:11:11.095Z,1004.86
2017-09-15T02:11:37.224Z,1004.86
2017-09-15T02:12:03.340Z,1004.85
2017-09-15T02:12:29.464Z,1004.82
2017-09-15T02:12:55.585Z,1004.8
2017-09-15T02:13:21.704Z,1004.76
2017-09-15T02:13:47.834Z,1004.79
2017-09-15T02:14:13.958Z,1004.75
2017-09-15T02:14:40.073Z,1004.8
2017-09-15T02:15:06.194Z,1004.79
2017-09-15T02:15:32.322Z,1004.79
2017-09-15T02:15:58.439Z,1004.78
2017-09-15T02:16:24.568Z,1004.77
2017-09-15T02:16:50.693Z,1004.78
2017-09-15T02:17:16.813Z,1004.79
2017-09-15T02:17:42.937Z,1004.77
2017-09-15T02:18:09.055Z,1004.82
2017-09-15T02:18:35.184Z,1004.76
2017-09-15T02:19:01.303Z,1004.76
2017-09-15T02:19:27.423Z,1004.79
2017-09-15T02:19:53.549Z,1004.75
2017-09-15T02:20:19.672Z,1004.78
2017-09-15T02:20:45.793Z,1004.82
2017-09-15T02:21:11.917Z,1004.8
2017-09-15T02:21:38.036Z,1004.78
2017-09-15T02:22:04.160Z,1004.78
2017-09-15T02:22:30.279Z,1004.78
2017-09-15T02:22:56.405Z,1004.78
2017-09-15T02:23:22.522Z,1004.8
2017-09-15T02:23:48.646Z,1004.75
2017-09-15T02:24:14.765Z,1004.75
2017-09-15T02:24:40.886Z,1004.77
2017-09-15T02:25:07.007Z,1004.78
2017-09-15T02:25:33.131Z,1004.78
2017-09-15T02:25:59.259Z,1004.78
2017-09-15T02:26:25.375Z,1004.76
2017-09-15T02:26:51.494Z,1004.79
2017-09-15T02:27:17.613Z,1004.79
2017-09-15T02:27:43.745Z,1004.82
2017-09-15T02:28:09.866Z,1004.86
2017-09-15T02:28:35.998Z,1004.88
2017-09-15T02:29:02.123Z,1004.92
2017-09-15T02:29:28.238Z,1004.85
2017-09-15T02:29:54.386Z,1004.85
2017-09-15T02:30:20.512Z,1004.88
2017-09-15T02:30:46.634Z,1004.82
2017-09-15T02:31:12.753Z,1004.85
2017-09-15T02:31:38.874Z,1004.83
2017-09-15T02:32:04.992Z,1004.83
2017-09-15T02:32:31.129Z,1004.84
2017-09-15T02:32:57.255Z,1004.82
2017-09-15T02:33:23.384Z,1004.81
2017-09-15T02:33:49.508Z,1004.82
2017-09-15T02:34:15.634Z,1004.83
2017-09-15T02:34:41.754Z,1004.85
2017-09-15T02:35:07.885Z,1004.83
2017-09-15T02:35:33.994Z,1004.81
2017-09-15T02:36:00.121Z,1004.87
2017-09-15T02:36:26.240Z,1004.85
2017-09-15T02:36:52.360Z,1004.85
2017-09-15T02:37:18.482Z,1004.93
2017-09-15T02:37:44.610Z,1004.89
2017-09-15T02:38:10.728Z,1004.88
2017-09-15T02:38:36.850Z,1004.89
2017-09-15T02:39:02.978Z,1004.9
2017-09-15T02:39:29.096Z,1004.89
2017-09-15T02:39:55.222Z,1004.89
2017-09-15T02:40:21.346Z,1004.9
2017-09-15T02:40:47.466Z,1004.91
2017-09-15T02:41:13.590Z,1004.94
2017-09-15T02:41:39.709Z,1004.91
2017-09-15T02:42:05.835Z,1004.92
2017-09-15T02:42:31.950Z,1004.91
2017-09-15T02:42:58.075Z,1004.94
2017-09-15T02:43:24.194Z,1004.97
2017-09-15T02:43:50.319Z,1004.97
2017-09-15T02:44:16.442Z,1004.98
2017-09-15T02:44:42.559Z,1005.01
2017-09-15T02:45:08.689Z,1004.97
2017-09-15T02:45:34.809Z,1004.95
2017-09-15T02:46:00.934Z,1004.99
2017-09-15T02:46:27.055Z,1005.02
2017-09-15T02:46:53.183Z,1004.99
2017-09-15T02:47:19.302Z,1005.03
2017-09-15T02:47:45.420Z,1004.98
2017-09-15T02:48:11.544Z,1004.95
2017-09-15T02:48:37.670Z,1004.96
2017-09-15T02:49:03.791Z,1004.94
2017-09-15T02:49:29.938Z,1005.03
2017-09-15T02:49:56.069Z,1005.01
2017-09-15T02:50:22.198Z,1004.97
2017-09-15T02:50:48.322Z,1005.03
2017-09-15T02:51:14.444Z,1005.02
2017-09-15T02:51:40.563Z,1004.97
2017-09-15T02:52:06.709Z,1004.98
2017-09-15T02:52:32.856Z,1004.96
2017-09-15T02:52:58.982Z,1004.97
2017-09-15T02:53:25.105Z,1004.98
2017-09-15T02:53:51.223Z,1004.97
2017-09-15T02:54:17.341Z,1004.95
2017-09-15T02:54:43.461Z,1005
2017-09-15T02:55:09.583Z,1004.98
2017-09-15T02:55:35.713Z,1005.03
2017-09-15T02:56:01.828Z,1005.01
2017-09-15T02:56:27.955Z,1005.04
2017-09-15T02:56:54.076Z,1005.01
2017-09-15T02:57:20.202Z,1005.01
2017-09-15T02:57:46.318Z,1005.01
2017-09-15T02:58:12.443Z,1005.02
2017-09-15T02:58:38.569Z,1005.01
2017-09-15T02:59:04.688Z,1005.05
2017-09-15T02:59:30.806Z,1005.04
2017-09-15T02:59:56.929Z,1004.99
2017-09-15T03:00:23.047Z,1004.93
2017-09-15T03:00:49.175Z,1004.98
2017-09-15T03:01:15.300Z,1004.96
2017-09-15T03:01:41.421Z,1005.01
2017-09-15T03:02:07.537Z,1005.03
2017-09-15T03:02:33.661Z,1005.02
2017-09-15T03:02:59.789Z,1005.03
2017-09-15T03:03:25.907Z,1005.03
2017-09-15T03:03:52.029Z,1005.03
2017-09-15T03:04:18.156Z,1005.05
2017-09-15T03:04:44.271Z,1005.05
2017-09-15T03:05:10.394Z,1005.07
2017-09-15T03:05:36.521Z,1005.03
2017-09-15T03:06:02.643Z,1005.02
2017-09-15T03:06:28.760Z,1005.02
2017-09-15T03:06:54.886Z,1005.05
2017-09-15T03:07:21.008Z,1005.03
2017-09-15T03:07:47.124Z,1005.02
2017-09-15T03:08:13.246Z,1005.06
2017-09-15T03:08:39.387Z,1005.05
2017-09-15T03:09:05.506Z,1005.01
2017-09-15T03:09:31.633Z,1005.01
2017-09-15T03:09:57.756Z,1004.97
2017-09-15T03:10:23.893Z,1005.01
2017-09-15T03:10:50.022Z,1004.97
2017-09-15T03:11:16.134Z,1004.96
2017-09-15T03:11:42.256Z,1004.98
2017-09-15T03:12:08.380Z,1005.03
2017-09-15T03:12:34.515Z,1004.99
2017-09-15T03:13:00.633Z,1005.04
2017-09-15T03:13:26.753Z,1005
2017-09-15T03:13:52.874Z,1005
2017-09-15T03:14:18.999Z,1005.03
2017-09-15T03:14:45.126Z,1005
2017-09-15T03:15:11.247Z,1004.99
2017-09-15T03:15:37.370Z,1005.01
2017-09-15T03:16:03.497Z,1005.04
2017-09-15T03:16:29.621Z,1005
2017-09-15T03:16:55.739Z,1005.03
2017-09-15T03:17:21.861Z,1005.11
2017-09-15T03:17:47.982Z,1005.05
2017-09-15T03:18:14.103Z,1005.02
2017-09-15T03:18:40.220Z,1005.02
2017-09-15T03:19:06.344Z,1004.95
2017-09-15T03:19:32.498Z,1005.01
2017-09-15T03:19:58.638Z,1004.99
2017-09-15T03:20:24.757Z,1004.98
2017-09-15T03:20:50.887Z,1004.98
2017-09-15T03:21:17.005Z,1005.02
2017-09-15T03:21:43.131Z,1004.98
2017-09-15T03:22:09.249Z,1004.92
2017-09-15T03:22:35.373Z,1004.98
2017-09-15T03:23:01.501Z,1004.98
2017-09-15T03:23:27.623Z,1004.96
2017-09-15T03:23:53.740Z,1004.95
2017-09-15T03:24:19.863Z,1004.94
2017-09-15T03:24:46.014Z,1004.96
2017-09-15T03:25:12.107Z,1004.95
2017-09-15T03:25:38.228Z,1004.94
2017-09-15T03:26:04.352Z,1004.93
2017-09-15T03:26:30.473Z,1004.95
2017-09-15T03:26:56.599Z,1004.91
2017-09-15T03:27:22.716Z,1004.9
2017-09-15T03:27:48.844Z,1004.9
2017-09-15T03:28:14.969Z,1004.86
2017-09-15T03:28:41.087Z,1004.9
2017-09-15T03:29:07.214Z,1004.9
2017-09-15T03:29:33.335Z,1004.9
2017-09-15T03:29:59.480Z,1004.9
2017-09-15T03:30:25.598Z,1004.87
2017-09-15T03:30:51.720Z,1004.84
2017-09-15T03:31:17.844Z,1004.87
2017-09-15T03:31:43.960Z,1004.94
2017-09-15T03:32:10.091Z,1004.9
2017-09-15T03:32:36.204Z,1004.92
2017-09-15T03:33:02.335Z,1004.85
2017-09-15T03:33:28.485Z,1004.91
2017-09-15T03:33:54.584Z,1004.91
2017-09-15T03:34:20.705Z,1004.91
2017-09-15T03:34:46.840Z,1004.89
2017-09-15T03:35:12.959Z,1004.88
2017-09-15T03:35:39.092Z,1004.92
2017-09-15T03:36:05.218Z,1004.91
2017-09-15T03:36:31.363Z,1004.93
2017-09-15T03:36:57.487Z,1004.9
2017-09-15T03:37:23.628Z,1004.87
2017-09-15T03:37:49.748Z,1004.88
2017-09-15T03:38:15.885Z,1004.88
2017-09-15T03:38:42.013Z,1004.85
2017-09-15T03:39:08.130Z,1004.87
2017-09-15T03:39:34.259Z,1004.86
2017-09-15T03:40:00.378Z,1004.88
2017-09-15T03:40:26.498Z,1004.81
2017-09-15T03:40:52.625Z,1004.82
2017-09-15T03:41:18.741Z,1004.81
2017-09-15T03:41:44.871Z,1004.81
2017-09-15T03:42:10.996Z,1004.8
2017-09-15T03:42:37.113Z,1004.81
2017-09-15T03:43:03.259Z,1004.82
2017-09-15T03:43:29.383Z,1004.79
2017-09-15T03:43:55.506Z,1004.82
2017-09-15T03:44:21.622Z,1004.86
2017-09-15T03:44:47.749Z,1004.8
2017-09-15T03:45:13.920Z,1004.8
2017-09-15T03:45:40.010Z,1004.78
2017-09-15T03:46:06.136Z,1004.89
2017-09-15T03:46:32.255Z,1004.8
2017-09-15T03:46:58.407Z,1004.86
2017-09-15T03:47:24.499Z,1004.83
2017-09-15T03:47:50.625Z,1004.89
2017-09-15T03:48:16.746Z,1004.86
2017-09-15T03:48:42.863Z,1004.91
2017-09-15T03:49:08.991Z,1004.88
2017-09-15T03:49:35.111Z,1004.87
2017-09-15T03:50:01.236Z,1004.91
2017-09-15T03:50:27.361Z,1004.88
2017-09-15T03:50:53.484Z,1004.89
2017-09-15T03:51:19.604Z,1004.87
2017-09-15T03:51:45.721Z,1004.89
2017-09-15T03:52:11.844Z,1004.93
2017-09-15T03:52:37.968Z,1004.93
2017-09-15T03:53:04.084Z,1004.94
2017-09-15T03:53:30.209Z,1004.95
2017-09-15T03:53:56.329Z,1004.97
2017-09-15T03:54:22.452Z,1004.94
2017-09-15T03:54:48.579Z,1004.98
2017-09-15T03:55:14.727Z,1004.98
2017-09-15T03:55:40.843Z,1004.97
2017-09-15T03:56:06.976Z,1005
2017-09-15T03:56:33.100Z,1004.95
2017-09-15T03:56:59.223Z,1004.97
2017-09-15T03:57:25.362Z,1004.96
2017-09-15T03:57:51.490Z,1004.96
2017-09-15T03:58:17.610Z,1004.95
2017-09-15T03:58:43.737Z,1005.02
2017-09-15T03:59:09.860Z,1005
2017-09-15T03:59:35.977Z,1004.97
2017-09-15T04:00:02.103Z,1004.99
2017-09-15T04:00:28.233Z,1004.96
2017-09-15T04:00:54.355Z,1004.99
2017-09-15T04:01:20.482Z,1004.98
2017-09-15T04:01:46.592Z,1004.95
2017-09-15T04:02:12.712Z,1004.99
2017-09-15T04:02:38.855Z,1004.95
2017-09-15T04:03:04.980Z,1004.97
2017-09-15T04:03:31.099Z,1004.93
2017-09-15T04:03:57.219Z,1004.95
2017-09-15T04:04:23.345Z,1004.93
2017-09-15T04:04:49.468Z,1004.96
2017-09-15T04:05:15.589Z,1004.92
2017-09-15T04:05:41.707Z,1004.92
2017-09-15T04:06:07.834Z,1004.91
2017-09-15T04:06:33.953Z,1005
2017-09-15T04:07:00.079Z,1004.94
2017-09-15T04:07:26.195Z,1005.01
2017-09-15T04:07:52.319Z,1004.99
2017-09-15T04:08:18.448Z,1004.98
2017-09-15T04:08:44.587Z,1004.99
2017-09-15T04:09:10.707Z,1005.01
2017-09-15T04:09:36.834Z,1005.02
2017-09-15T04:10:02.953Z,1005.02
2017-09-15T04:10:29.080Z,1004.93
2017-09-15T04:10:55.203Z,1004.99
2017-09-15T04:11:21.323Z,1005
2017-09-15T04:11:47.441Z,1005
2017-09-15T04:12:13.567Z,1005.03
2017-09-15T04:12:39.694Z,1005
2017-09-15T04:13:05.816Z,1004.99
2017-09-15T04:13:31.940Z,1004.95
2017-09-15T04:13:58.056Z,1004.97
2017-09-15T04:14:24.176Z,1004.99
2017-09-15T04:14:50.300Z,1004.98
2017-09-15T04:15:16.430Z,1004.99
2017-09-15T04:15:42.548Z,1004.95
2017-09-15T04:16:08.668Z,1004.98
2017-09-15T04:16:34.794Z,1004.95
2017-09-15T04:17:00.912Z,1004.97
2017-09-15T04:17:27.035Z,1004.94
2017-09-15T04:17:53.158Z,1005.01
2017-09-15T04:18:19.283Z,1005.01
2017-09-15T04:18:45.399Z,1004.94
2017-09-15T04:19:11.525Z,1005.01
2017-09-15T04:19:37.649Z,1004.99
2017-09-15T04:20:03.767Z,1004.97
2017-09-15T04:20:29.894Z,1005.01
2017-09-15T04:20:56.010Z,1005
2017-09-15T04:21:22.130Z,1004.99
2017-09-15T04:21:48.254Z,1005.02
2017-09-15T04:22:14.375Z,1005.02
2017-09-15T04:22:40.501Z,1005.03
2017-09-15T04:23:06.619Z,1005.04
2017-09-15T04:23:32.742Z,1005.06
2017-09-15T04:23:58.861Z,1005.11
2017-09-15T04:24:24.990Z,1005.04
2017-09-15T04:24:51.114Z,1005.09
2017-09-15T04:25:17.233Z,1005.09
2017-09-15T04:25:43.359Z,1005.09
2017-09-15T04:26:09.482Z,1005.09
2017-09-15T04:26:35.609Z,1005.12
2017-09-15T04:27:01.730Z,1005.09
2017-09-15T04:27:27.855Z,1005.13
2017-09-15T04:27:53.970Z,1005.09
2017-09-15T04:28:20.089Z,1005.1
2017-09-15T04:28:46.214Z,1005.16
2017-09-15T04:29:12.333Z,1005.13
2017-09-15T04:29:38.460Z,1005.13
2017-09-15T04:30:04.580Z,1005.13
2017-09-15T04:30:30.715Z,1005.14
2017-09-15T04:30:56.844Z,1005.11
2017-09-15T04:31:22.960Z,1005.09
2017-09-15T04:31:49.088Z,1005.14
2017-09-15T04:32:15.204Z,1005.1
2017-09-15T04:32:41.325Z,1005.15
2017-09-15T04:33:07.474Z,1005.1
2017-09-15T04:33:33.593Z,1005.14
2017-09-15T04:33:59.709Z,1005.09
2017-09-15T04:34:25.831Z,1005.09
2017-09-15T04:34:51.951Z,1005.05
2017-09-15T04:35:18.068Z,1005.07
2017-09-15T04:35:44.193Z,1005.14
2017-09-15T04:36:10.326Z,1005.12
2017-09-15T04:36:36.445Z,1005.14
2017-09-15T04:37:02.567Z,1005.14
2017-09-15T04:37:28.691Z,1005.16
2017-09-15T04:37:54.809Z,1005.12
2017-09-15T04:38:20.937Z,1005.13
2017-09-15T04:38:47.083Z,1005.09
2017-09-15T04:39:13.199Z,1005.11
2017-09-15T04:39:39.326Z,1005.11
2017-09-15T04:40:05.443Z,1005.14
2017-09-15T04:40:31.564Z,1005.13
2017-09-15T04:40:57.693Z,1005.13
2017-09-15T04:41:23.810Z,1005.16
2017-09-15T04:41:49.933Z,1005.1
2017-09-15T04:42:16.056Z,1005.15
2017-09-15T04:42:42.177Z,1005.14
2017-09-15T04:43:08.303Z,1005.14
2017-09-15T04:43:34.421Z,1005.15
2017-09-15T04:44:00.541Z,1005.12
2017-09-15T04:44:26.668Z,1005.17
2017-09-15T04:44:52.792Z,1005.22
2017-09-15T04:45:18.909Z,1005.15
2017-09-15T04:45:45.038Z,1005.15
2017-09-15T04:46:11.160Z,1005.2
2017-09-15T04:46:37.286Z,1005.18
2017-09-15T04:47:03.400Z,1005.15
2017-09-15T04:47:29.528Z,1005.14
2017-09-15T04:47:55.645Z,1005.16
2017-09-15T04:48:21.776Z,1005.15
2017-09-15T04:48:47.883Z,1005.22
2017-09-15T04:49:14.002Z,1005.25
2017-09-15T04:49:40.128Z,1005.2
2017-09-15T04:50:06.257Z,1005.18
2017-09-15T04:50:32.377Z,1005.21
2017-09-15T04:50:58.506Z,1005.22
2017-09-15T04:51:24.636Z,1005.2
2017-09-15T04:51:50.742Z,1005.23
2017-09-15T04:52:16.870Z,1005.2
2017-09-15T04:52:42.991Z,1005.2
2017-09-15T04:53:09.131Z,1005.21
2017-09-15T04:53:35.253Z,1005.2
2017-09-15T04:54:01.383Z,1005.19
2017-09-15T04:54:27.520Z,1005.25
2017-09-15T04:54:53.643Z,1005.22
2017-09-15T04:55:19.766Z,1005.18
2017-09-15T04:55:45.883Z,1005.19
2017-09-15T04:56:12.003Z,1005.19
2017-09-15T04:56:38.127Z,1005.21
2017-09-15T04:57:04.260Z,1005.16
2017-09-15T04:57:30.380Z,1005.15
2017-09-15T04:57:56.505Z,1005.19
2017-09-15T04:58:22.626Z,1005.15
2017-09-15T04:58:48.749Z,1005.16
2017-09-15T04:59:14.890Z,1005.14
2017-09-15T04:59:41.020Z,1005.18
2017-09-15T05:00:07.162Z,1005.14
2017-09-15T05:00:33.287Z,1005.12
2017-09-15T05:00:59.404Z,1005.11
2017-09-15T05:01:25.527Z,1005.16
2017-09-15T05:01:51.650Z,1005.09
2017-09-15T05:02:17.777Z,1005.09
2017-09-15T05:02:43.894Z,1005.09
2017-09-15T05:03:10.022Z,1005.1
2017-09-15T05:03:36.143Z,1005.1
2017-09-15T05:04:02.261Z,1005.08
2017-09-15T05:04:28.385Z,1005.11
2017-09-15T05:04:54.510Z,1005.18
2017-09-15T05:05:20.632Z,1005.12
2017-09-15T05:05:46.747Z,1005.16
2017-09-15T05:06:12.880Z,1005.11
2017-09-15T05:06:39.017Z,1005.1
2017-09-15T05:07:05.145Z,1005.12
2017-09-15T05:07:31.263Z,1005.12
2017-09-15T05:07:57.389Z,1005.13
2017-09-15T05:08:23.521Z,1005.16
2017-09-15T05:08:49.655Z,1005.14
2017-09-15T05:09:15.778Z,1005.17
2017-09-15T05:09:41.906Z,1005.15
2017-09-15T05:10:08.032Z,1005.21
2017-09-15T05:10:34.152Z,1005.14
2017-09-15T05:11:00.277Z,1005.13
2017-09-15T05:11:26.398Z,1005.12
2017-09-15T05:11:52.524Z,1005.13
2017-09-15T05:12:18.640Z,1005.12
2017-09-15T05:12:44.765Z,1005.12
2017-09-15T05:13:10.885Z,1005.15
2017-09-15T05:13:37.011Z,1005.19
2017-09-15T05:14:03.126Z,1005.12
2017-09-15T05:14:29.246Z,1005.16
2017-09-15T05:14:55.369Z,1005.21
2017-09-15T05:15:21.493Z,1005.14
2017-09-15T05:15:47.617Z,1005.17
2017-09-15T05:16:13.738Z,1005.1
2017-09-15T05:16:39.858Z,1005.16
2017-09-15T05:17:05.979Z,1005.11